Time;durP1;ratioP1;P1;durP2;ratioP2;P2;SDS_P1;SDS_P2;PMS_P1;PMS_P2;Temp;Humidity;BMP_temperature;BMP_pressure;BME280_temperature;BME280_humidity;BME280_pressure;Samples;Min_cycle;Max_cycle;Signal;HPM_P1;HPM_P2
2023/12/19 00:00:56;;;;;;;9.32;7.93;;;;;;;;;;5036842;28;20071;-60
2023/12/19 00:03:22;;;;;;;9.80;7.78;;;;;;;;;;5054863;28;20411;-60
2023/12/19 00:05:47;;;;;;;9.52;8.00;;;;;;;;;;5041097;28;20499;-60
2023/12/19 00:08:12;;;;;;;9.45;7.72;;;;;;;;;;5048351;28;20029;-60
2023/12/19 00:10:38;;;;;;;9.63;7.80;;;;;;;;;;5040180;28;20177;-61
2023/12/19 00:13:03;;;;;;;9.20;7.65;;;;;;;;;;5045192;28;20521;-60
2023/12/19 00:15:28;;;;;;;10.90;8.75;;;;;;;;;;5039026;28;20037;-61
2023/12/19 00:17:54;;;;;;;9.73;7.90;;;;;;;;;;5044630;28;20055;-60
2023/12/19 00:20:19;;;;;;;9.90;8.02;;;;;;;;;;5041301;28;20128;-61
2023/12/19 00:22:44;;;;;;;10.85;8.20;;;;;;;;;;5035834;28;20045;-61
2023/12/19 00:25:10;;;;;;;10.23;8.20;;;;;;;;;;5013675;28;20041;-61
2023/12/19 00:27:35;;;;;;;10.35;8.25;;;;;;;;;;5031987;28;20029;-60
2023/12/19 00:30:00;;;;;;;10.10;8.10;;;;;;;;;;5027904;28;20036;-61
2023/12/19 00:32:26;;;;;;;10.80;8.18;;;;;;;;;;5037982;28;20044;-61
2023/12/19 00:34:51;;;;;;;10.27;8.18;;;;;;;;;;5020573;28;20033;-60
2023/12/19 00:37:17;;;;;;;9.57;7.95;;;;;;;;;;5033930;28;20113;-61
2023/12/19 00:39:42;;;;;;;9.23;7.78;;;;;;;;;;5025689;28;20065;-60
2023/12/19 00:42:07;;;;;;;10.10;8.13;;;;;;;;;;5037410;28;20109;-60
2023/12/19 00:44:36;;;;;;;10.10;8.13;;;;;;;;;;5040483;28;20505;-61
2023/12/19 00:47:01;;;;;;;10.02;8.00;;;;;;;;;;5022075;28;20029;-61
2023/12/19 00:49:27;;;;;;;10.70;7.85;;;;;;;;;;5017634;28;20055;-60
2023/12/19 00:51:52;;;;;;;9.10;7.80;;;;;;;;;;5021405;28;20036;-61
2023/12/19 00:54:18;;;;;;;10.57;8.32;;;;;;;;;;5039832;28;20481;-60
2023/12/19 00:56:43;;;;;;;9.95;7.82;;;;;;;;;;5007209;28;20041;-60
2023/12/19 00:59:09;;;;;;;10.35;8.23;;;;;;;;;;5043393;28;20106;-60
2023/12/19 01:01:34;;;;;;;10.57;8.48;;;;;;;;;;5033238;28;20099;-59
2023/12/19 01:04:00;;;;;;;9.98;7.80;;;;;;;;;;5027993;28;20459;-61
2023/12/19 01:06:25;;;;;;;9.93;7.97;;;;;;;;;;5054939;28;20510;-61
2023/12/19 01:08:50;;;;;;;9.48;7.60;;;;;;;;;;5033314;28;20968;-61
2023/12/19 01:11:16;;;;;;;9.63;8.10;;;;;;;;;;5040630;28;20029;-61
2023/12/19 01:13:41;;;;;;;10.07;8.20;;;;;;;;;;5029622;28;20178;-61
2023/12/19 01:16:06;;;;;;;9.65;7.88;;;;;;;;;;5050619;28;20040;-60
2023/12/19 01:18:50;;;;;;;9.00;7.55;;;;;;;;;;5032117;28;20041;-61
2023/12/19 01:21:16;;;;;;;9.80;7.90;;;;;;;;;;5035950;28;20517;-60
2023/12/19 01:23:41;;;;;;;9.43;7.53;;;;;;;;;;5034909;28;20042;-61
2023/12/19 01:26:06;;;;;;;9.95;8.02;;;;;;;;;;5051632;28;20060;-60
2023/12/19 01:28:31;;;;;;;9.75;7.95;;;;;;;;;;5038095;28;20036;-60
2023/12/19 01:30:57;;;;;;;9.63;7.68;;;;;;;;;;5022594;28;20040;-61
2023/12/19 01:33:22;;;;;;;9.38;8.20;;;;;;;;;;5043840;28;20495;-61
2023/12/19 01:35:47;;;;;;;10.60;8.65;;;;;;;;;;5021096;28;20664;-61
2023/12/19 01:38:14;;;;;;;10.40;7.82;;;;;;;;;;5042143;28;20049;-60
2023/12/19 01:40:39;;;;;;;8.85;7.90;;;;;;;;;;5026554;28;20037;-60
2023/12/19 01:43:14;;;;;;;10.80;8.13;;;;;;;;;;5036481;28;20086;-61
2023/12/19 01:45:39;;;;;;;10.25;8.00;;;;;;;;;;5034781;28;20407;-60
2023/12/19 01:48:05;;;;;;;10.05;7.85;;;;;;;;;;5055330;28;20040;-60
2023/12/19 01:50:30;;;;;;;9.57;8.02;;;;;;;;;;5042553;28;20032;-61
2023/12/19 01:52:56;;;;;;;9.40;7.97;;;;;;;;;;5019393;28;20213;-60
2023/12/19 01:55:24;;;;;;;9.85;8.05;;;;;;;;;;5038038;28;20041;-60
2023/12/19 01:57:50;;;;;;;9.80;7.93;;;;;;;;;;5054305;28;20048;-60
2023/12/19 02:00:15;;;;;;;9.70;7.70;;;;;;;;;;5042617;28;20075;-59
2023/12/19 02:02:40;;;;;;;9.15;8.00;;;;;;;;;;5013767;28;20050;-59
2023/12/19 02:05:06;;;;;;;8.82;7.68;;;;;;;;;;5036265;28;20120;-59
2023/12/19 02:07:31;;;;;;;9.13;8.07;;;;;;;;;;5040764;28;20033;-59
2023/12/19 02:09:56;;;;;;;9.73;8.15;;;;;;;;;;5028302;28;20105;-59
2023/12/19 02:12:22;;;;;;;9.52;7.97;;;;;;;;;;5026535;28;20041;-59
2023/12/19 02:14:47;;;;;;;9.82;8.40;;;;;;;;;;5027866;28;20033;-59
2023/12/19 02:17:14;;;;;;;9.70;7.45;;;;;;;;;;5061712;28;20049;-59
2023/12/19 02:19:45;;;;;;;9.70;7.70;;;;;;;;;;5045440;28;20044;-59
2023/12/19 02:22:11;;;;;;;9.88;7.72;;;;;;;;;;5044942;28;20842;-60
2023/12/19 02:24:36;;;;;;;10.15;8.10;;;;;;;;;;5048025;28;20033;-59
2023/12/19 02:27:02;;;;;;;8.57;7.30;;;;;;;;;;5031498;28;20033;-59
2023/12/19 02:29:28;;;;;;;8.75;7.30;;;;;;;;;;5041741;28;20123;-59
2023/12/19 02:31:53;;;;;;;9.82;7.90;;;;;;;;;;5045714;28;20139;-59
2023/12/19 02:34:18;;;;;;;9.57;7.57;;;;;;;;;;5032205;28;20164;-59
2023/12/19 02:36:43;;;;;;;9.52;7.65;;;;;;;;;;5044551;28;20053;-60
2023/12/19 02:39:09;;;;;;;9.80;8.07;;;;;;;;;;5043116;28;20061;-59
2023/12/19 02:41:34;;;;;;;10.30;7.82;;;;;;;;;;5024809;28;20488;-60
2023/12/19 02:44:00;;;;;;;9.05;7.47;;;;;;;;;;5047484;28;20056;-60
2023/12/19 02:46:25;;;;;;;9.75;8.15;;;;;;;;;;5047361;28;20048;-60
2023/12/19 02:48:50;;;;;;;9.60;7.53;;;;;;;;;;5029057;28;20930;-59
2023/12/19 02:51:19;;;;;;;9.35;7.82;;;;;;;;;;5066341;28;20453;-60
2023/12/19 02:53:44;;;;;;;8.88;7.78;;;;;;;;;;5028145;28;20033;-59
2023/12/19 02:56:09;;;;;;;9.68;7.75;;;;;;;;;;5042955;28;20064;-60
2023/12/19 02:58:35;;;;;;;9.75;7.75;;;;;;;;;;5046660;28;20044;-60
2023/12/19 03:01:00;;;;;;;9.55;7.57;;;;;;;;;;5047243;28;20036;-60
2023/12/19 03:03:26;;;;;;;9.10;7.57;;;;;;;;;;5037799;28;20076;-59
2023/12/19 03:05:51;;;;;;;10.52;8.20;;;;;;;;;;5047361;28;20045;-59
2023/12/19 03:08:16;;;;;;;10.00;8.20;;;;;;;;;;5045171;28;20079;-60
2023/12/19 03:10:41;;;;;;;9.25;7.75;;;;;;;;;;5031719;28;20037;-60
2023/12/19 03:13:07;;;;;;;9.52;7.97;;;;;;;;;;5048085;28;20410;-60
2023/12/19 03:15:32;;;;;;;9.30;7.70;;;;;;;;;;5045665;28;20034;-60
2023/12/19 03:17:57;;;;;;;10.05;7.60;;;;;;;;;;5037702;28;20053;-59
2023/12/19 03:20:23;;;;;;;8.63;7.25;;;;;;;;;;5043967;28;20045;-59
2023/12/19 03:22:48;;;;;;;9.07;7.57;;;;;;;;;;5027554;28;20574;-59
2023/12/19 03:25:14;;;;;;;9.45;7.70;;;;;;;;;;5027987;28;20491;-60
2023/12/19 03:27:39;;;;;;;9.73;7.88;;;;;;;;;;5024634;28;20451;-59
2023/12/19 03:30:05;;;;;;;9.38;7.95;;;;;;;;;;5037744;28;20124;-59
2023/12/19 03:32:30;;;;;;;9.40;7.47;;;;;;;;;;5040812;28;20242;-60
2023/12/19 03:34:56;;;;;;;9.95;7.63;;;;;;;;;;5044805;28;20430;-60
2023/12/19 03:37:21;;;;;;;9.55;7.60;;;;;;;;;;5035270;28;20511;-60
2023/12/19 03:39:46;;;;;;;9.60;7.93;;;;;;;;;;5029801;28;20502;-60
2023/12/19 03:42:12;;;;;;;9.60;8.00;;;;;;;;;;5048181;28;20585;-60
2023/12/19 03:44:37;;;;;;;8.48;7.32;;;;;;;;;;5041863;28;20503;-59
2023/12/19 03:47:02;;;;;;;9.95;7.90;;;;;;;;;;5026495;28;20495;-59
2023/12/19 03:49:28;;;;;;;9.30;7.88;;;;;;;;;;5042606;28;20037;-60
2023/12/19 03:51:53;;;;;;;9.60;7.50;;;;;;;;;;5038845;28;20033;-59
2023/12/19 03:54:18;;;;;;;8.57;6.97;;;;;;;;;;5029806;28;20034;-59
2023/12/19 03:56:44;;;;;;;9.50;7.60;;;;;;;;;;5037972;28;20047;-59
2023/12/19 03:59:10;;;;;;;8.10;6.97;;;;;;;;;;5004739;28;20414;-60
2023/12/19 04:01:44;;;;;;;9.05;7.28;;;;;;;;;;5023876;28;20021;-59
2023/12/19 04:04:11;;;;;;;9.85;7.40;;;;;;;;;;5037268;28;20033;-60
2023/12/19 04:06:38;;;;;;;9.00;7.38;;;;;;;;;;5031639;28;20769;-59
2023/12/19 04:09:04;;;;;;;8.93;7.05;;;;;;;;;;5029624;28;20026;-60
2023/12/19 04:11:29;;;;;;;10.07;7.47;;;;;;;;;;5045411;28;20029;-60
2023/12/19 04:13:54;;;;;;;8.93;6.97;;;;;;;;;;5039155;28;20503;-59
2023/12/19 04:16:20;;;;;;;9.07;7.18;;;;;;;;;;5043180;28;20545;-60
2023/12/19 04:18:45;;;;;;;9.05;7.05;;;;;;;;;;5026345;28;20026;-60
2023/12/19 04:21:10;;;;;;;9.48;7.75;;;;;;;;;;5040231;28;20119;-59
2023/12/19 04:23:35;;;;;;;9.20;7.55;;;;;;;;;;5028933;28;20040;-59
2023/12/19 04:26:01;;;;;;;8.60;7.40;;;;;;;;;;5026270;28;20034;-59
2023/12/19 04:28:26;;;;;;;9.18;7.38;;;;;;;;;;5042201;28;20071;-59
2023/12/19 04:30:52;;;;;;;9.38;7.47;;;;;;;;;;5031307;28;20024;-59
2023/12/19 04:33:17;;;;;;;8.27;6.85;;;;;;;;;;5039793;28;20027;-59
2023/12/19 04:35:42;;;;;;;8.18;6.97;;;;;;;;;;5057180;28;20032;-59
2023/12/19 04:38:08;;;;;;;8.95;7.18;;;;;;;;;;5046012;28;20091;-59
2023/12/19 04:40:33;;;;;;;8.52;7.20;;;;;;;;;;5040354;28;20041;-60
2023/12/19 04:42:58;;;;;;;9.13;7.03;;;;;;;;;;5039690;28;20052;-59
2023/12/19 04:45:23;;;;;;;9.45;7.50;;;;;;;;;;5038946;28;20048;-59
2023/12/19 04:47:49;;;;;;;9.32;7.43;;;;;;;;;;5013488;28;20558;-60
2023/12/19 04:50:14;;;;;;;9.40;7.40;;;;;;;;;;5030020;28;20136;-59
2023/12/19 04:52:40;;;;;;;9.10;7.35;;;;;;;;;;5044481;28;20112;-59
2023/12/19 04:55:06;;;;;;;9.77;7.32;;;;;;;;;;5004675;28;20033;-59
2023/12/19 04:57:31;;;;;;;8.07;6.95;;;;;;;;;;5043683;28;20420;-60
2023/12/19 04:59:56;;;;;;;9.23;7.45;;;;;;;;;;5034469;28;20594;-59
2023/12/19 05:02:23;;;;;;;8.27;6.80;;;;;;;;;;5016182;28;20042;-60
2023/12/19 05:04:48;;;;;;;9.10;7.18;;;;;;;;;;5039936;28;20047;-59
2023/12/19 05:07:13;;;;;;;9.05;7.15;;;;;;;;;;5034938;28;20116;-59
2023/12/19 05:09:39;;;;;;;8.27;7.13;;;;;;;;;;5034193;28;20425;-60
2023/12/19 05:12:04;;;;;;;9.07;7.18;;;;;;;;;;5035398;28;20037;-60
2023/12/19 05:14:29;;;;;;;9.60;7.43;;;;;;;;;;5037952;28;20041;-59
2023/12/19 05:16:55;;;;;;;9.27;7.05;;;;;;;;;;5051984;28;20094;-59
2023/12/19 05:19:20;;;;;;;8.80;7.40;;;;;;;;;;5025993;28;20062;-59
2023/12/19 05:21:45;;;;;;;8.55;7.15;;;;;;;;;;5053858;28;20037;-60
2023/12/19 05:24:11;;;;;;;9.27;7.05;;;;;;;;;;5038479;28;20470;-59
2023/12/19 05:26:36;;;;;;;8.45;7.25;;;;;;;;;;5044767;28;20422;-59
2023/12/19 05:29:01;;;;;;;9.07;7.40;;;;;;;;;;5042010;28;20849;-59
2023/12/19 05:31:27;;;;;;;9.55;7.35;;;;;;;;;;5014082;28;20436;-59
2023/12/19 05:33:52;;;;;;;9.57;7.63;;;;;;;;;;5041928;28;20106;-60
2023/12/19 05:36:17;;;;;;;9.45;7.30;;;;;;;;;;5044195;28;20090;-60
2023/12/19 05:38:42;;;;;;;9.63;7.60;;;;;;;;;;5031569;28;20026;-59
2023/12/19 05:41:09;;;;;;;9.85;7.70;;;;;;;;;;5043077;28;20041;-59
2023/12/19 05:43:34;;;;;;;9.25;7.22;;;;;;;;;;5047263;28;20418;-60
2023/12/19 05:46:00;;;;;;;9.00;7.63;;;;;;;;;;5047203;28;20033;-59
2023/12/19 05:48:25;;;;;;;10.80;7.43;;;;;;;;;;5047392;28;20036;-59
2023/12/19 05:50:51;;;;;;;8.25;7.07;;;;;;;;;;5042252;28;20538;-60
2023/12/19 05:53:16;;;;;;;9.35;7.68;;;;;;;;;;5005850;28;20041;-60
2023/12/19 05:55:44;;;;;;;10.88;8.13;;;;;;;;;;5037786;28;20040;-60
2023/12/19 05:58:10;;;;;;;10.30;8.00;;;;;;;;;;5037995;28;20455;-61
2023/12/19 06:00:35;;;;;;;9.93;8.00;;;;;;;;;;5035197;28;20113;-61
2023/12/19 06:03:01;;;;;;;9.70;8.02;;;;;;;;;;5018613;28;20044;-61
2023/12/19 06:05:26;;;;;;;10.95;8.18;;;;;;;;;;5037644;28;20040;-61
2023/12/19 06:07:51;;;;;;;10.93;8.38;;;;;;;;;;5016666;28;20033;-61
2023/12/19 06:10:17;;;;;;;10.10;8.10;;;;;;;;;;5037082;28;21578;-61
2023/12/19 06:12:42;;;;;;;10.73;8.40;;;;;;;;;;5037559;28;20463;-61
2023/12/19 06:15:11;;;;;;;10.18;7.65;;;;;;;;;;5040413;28;20065;-61
2023/12/19 06:17:39;;;;;;;10.30;8.68;;;;;;;;;;5036854;28;20049;-61
2023/12/19 06:20:04;;;;;;;9.75;8.02;;;;;;;;;;5042674;28;20040;-60
2023/12/19 06:22:29;;;;;;;11.18;8.82;;;;;;;;;;5039892;28;24358;-62
2023/12/19 06:24:55;;;;;;;9.98;8.23;;;;;;;;;;5036206;28;20133;-62
2023/12/19 06:27:21;;;;;;;10.88;8.85;;;;;;;;;;5034032;28;20033;-61
2023/12/19 06:29:46;;;;;;;10.43;8.25;;;;;;;;;;5034959;28;20040;-61
2023/12/19 06:32:11;;;;;;;12.48;8.80;;;;;;;;;;5034194;28;20475;-61
2023/12/19 06:34:37;;;;;;;12.52;8.82;;;;;;;;;;5013293;28;20056;-60
2023/12/19 06:37:02;;;;;;;12.30;8.57;;;;;;;;;;5034814;28;20533;-61
2023/12/19 06:39:28;;;;;;;11.25;9.05;;;;;;;;;;5035411;28;20044;-60
2023/12/19 06:41:53;;;;;;;10.52;8.55;;;;;;;;;;5012244;28;20079;-61
2023/12/19 06:44:19;;;;;;;11.95;8.68;;;;;;;;;;5034120;28;20033;-61
2023/12/19 06:46:46;;;;;;;11.25;8.68;;;;;;;;;;5037304;28;20662;-61
2023/12/19 06:49:12;;;;;;;11.65;8.90;;;;;;;;;;5022582;28;20041;-58
2023/12/19 06:51:38;;;;;;;10.82;8.70;;;;;;;;;;5022399;28;20132;-61
2023/12/19 06:54:03;;;;;;;11.68;8.68;;;;;;;;;;5034810;28;20170;-61
2023/12/19 06:56:29;;;;;;;11.75;9.10;;;;;;;;;;5034762;28;20064;-61
2023/12/19 06:58:54;;;;;;;11.80;8.82;;;;;;;;;;5023823;28;20036;-61
2023/12/19 07:01:20;;;;;;;11.60;9.43;;;;;;;;;;5037472;28;20041;-61
2023/12/19 07:03:45;;;;;;;10.88;9.25;;;;;;;;;;5037818;28;20544;-60
2023/12/19 07:06:14;;;;;;;11.05;8.68;;;;;;;;;;5014171;28;20033;-61
2023/12/19 07:08:39;;;;;;;10.88;8.98;;;;;;;;;;5016282;28;20056;-62
2023/12/19 07:11:05;;;;;;;11.73;9.40;;;;;;;;;;5037868;28;20104;-59
2023/12/19 07:13:31;;;;;;;12.60;9.40;;;;;;;;;;5039757;28;20503;-60
2023/12/19 07:15:56;;;;;;;12.43;9.00;;;;;;;;;;5018778;28;20033;-60
2023/12/19 07:18:21;;;;;;;11.75;9.50;;;;;;;;;;5033002;28;20115;-60
2023/12/19 07:20:46;;;;;;;10.82;9.07;;;;;;;;;;5030279;28;20037;-59
2023/12/19 07:23:12;;;;;;;12.35;9.10;;;;;;;;;;5035845;28;20099;-60
2023/12/19 07:25:38;;;;;;;11.23;9.52;;;;;;;;;;5033980;28;20156;-61
2023/12/19 07:28:03;;;;;;;12.80;9.32;;;;;;;;;;5036708;28;20147;-59
2023/12/19 07:30:29;;;;;;;12.57;10.15;;;;;;;;;;5013032;28;20063;-60
2023/12/19 07:32:54;;;;;;;12.50;10.30;;;;;;;;;;5035050;28;20045;-60
2023/12/19 07:35:20;;;;;;;12.18;9.50;;;;;;;;;;5002569;28;20068;-62
2023/12/19 07:37:45;;;;;;;12.07;9.73;;;;;;;;;;5036646;28;20060;-61
2023/12/19 07:40:11;;;;;;;13.23;10.00;;;;;;;;;;5013985;28;20041;-59
2023/12/19 07:42:37;;;;;;;11.90;9.77;;;;;;;;;;5029885;28;20120;-60
2023/12/19 07:45:03;;;;;;;12.38;10.10;;;;;;;;;;5038585;28;20116;-57
2023/12/19 07:47:28;;;;;;;11.35;9.48;;;;;;;;;;5030130;28;20029;-59
2023/12/19 07:49:53;;;;;;;12.70;9.93;;;;;;;;;;5046693;28;20421;-60
2023/12/19 07:52:19;;;;;;;13.10;9.73;;;;;;;;;;5045539;28;20098;-58
2023/12/19 07:54:44;;;;;;;13.65;10.60;;;;;;;;;;5023890;28;20514;-59
2023/12/19 07:57:09;;;;;;;12.80;10.52;;;;;;;;;;5053161;28;20082;-59
2023/12/19 07:59:35;;;;;;;13.63;10.15;;;;;;;;;;5044538;28;20507;-59
2023/12/19 08:02:00;;;;;;;13.65;10.50;;;;;;;;;;5035417;28;20117;-58
2023/12/19 08:04:25;;;;;;;15.65;11.10;;;;;;;;;;5043768;28;20105;-60
2023/12/19 08:06:51;;;;;;;14.00;10.98;;;;;;;;;;5042769;28;20067;-60
2023/12/19 08:09:16;;;;;;;13.52;11.30;;;;;;;;;;5036063;28;20037;-60
2023/12/19 08:11:41;;;;;;;13.85;10.95;;;;;;;;;;5036185;28;20085;-60
2023/12/19 08:14:07;;;;;;;13.88;11.70;;;;;;;;;;5043723;28;20075;-59
2023/12/19 08:16:32;;;;;;;15.77;11.68;;;;;;;;;;5000958;28;20040;-60
2023/12/19 08:18:58;;;;;;;14.13;11.00;;;;;;;;;;5036111;28;20033;-59
2023/12/19 08:21:23;;;;;;;16.45;11.20;;;;;;;;;;5023942;28;20056;-59
2023/12/19 08:23:49;;;;;;;13.48;10.57;;;;;;;;;;5042167;28;20127;-60
2023/12/19 08:26:14;;;;;;;14.10;10.30;;;;;;;;;;5002530;28;20124;-59
2023/12/19 08:28:39;;;;;;;14.30;10.55;;;;;;;;;;5025887;28;20063;-60
2023/12/19 08:31:05;;;;;;;13.77;11.02;;;;;;;;;;5041625;28;20112;-59
2023/12/19 08:33:30;;;;;;;14.77;10.82;;;;;;;;;;5018347;28;20045;-60
2023/12/19 08:35:55;;;;;;;14.25;10.25;;;;;;;;;;5035496;28;20131;-60
2023/12/19 08:38:21;;;;;;;14.20;11.02;;;;;;;;;;5019161;28;20057;-59
2023/12/19 08:40:46;;;;;;;14.38;11.40;;;;;;;;;;5035623;28;20037;-61
2023/12/19 08:43:11;;;;;;;18.08;12.68;;;;;;;;;;5011262;28;20155;-60
2023/12/19 08:45:37;;;;;;;19.13;13.43;;;;;;;;;;5035802;28;20494;-58
2023/12/19 08:48:04;;;;;;;25.05;18.60;;;;;;;;;;5000337;28;20033;-58
2023/12/19 08:50:30;;;;;;;33.92;23.58;;;;;;;;;;5027417;28;20040;-58
2023/12/19 08:52:55;;;;;;;37.30;26.58;;;;;;;;;;5023175;28;20033;-59
2023/12/19 08:55:21;;;;;;;36.03;27.20;;;;;;;;;;5042472;28;20066;-58
2023/12/19 08:57:46;;;;;;;42.25;29.55;;;;;;;;;;5039218;28;20055;-60
2023/12/19 09:00:19;;;;;;;38.65;27.77;;;;;;;;;;5034245;28;20049;-58
2023/12/19 09:02:45;;;;;;;35.83;26.70;;;;;;;;;;5011897;28;20112;-58
2023/12/19 09:05:14;;;;;;;34.50;25.30;;;;;;;;;;5044990;28;20136;-60
2023/12/19 09:07:39;;;;;;;36.10;25.42;;;;;;;;;;5019997;28;20045;-58
2023/12/19 09:10:05;;;;;;;33.28;24.08;;;;;;;;;;5035182;28;20472;-59
2023/12/19 09:12:31;;;;;;;31.90;24.33;;;;;;;;;;5043962;28;20611;-60
2023/12/19 09:14:56;;;;;;;32.58;22.67;;;;;;;;;;5034365;28;20055;-59
2023/12/19 09:17:22;;;;;;;31.48;23.00;;;;;;;;;;5039534;28;20624;-59
2023/12/19 09:19:47;;;;;;;28.13;20.52;;;;;;;;;;5040207;28;20045;-60
2023/12/19 09:22:12;;;;;;;28.08;21.40;;;;;;;;;;5040397;28;20967;-59
2023/12/19 09:24:37;;;;;;;31.00;22.02;;;;;;;;;;5040476;28;20040;-59
2023/12/19 09:27:03;;;;;;;29.50;21.63;;;;;;;;;;5020904;28;20399;-59
2023/12/19 09:29:28;;;;;;;28.13;20.70;;;;;;;;;;5022799;28;20430;-59
2023/12/19 09:31:54;;;;;;;25.52;19.17;;;;;;;;;;5024873;28;20047;-58
2023/12/19 09:34:19;;;;;;;26.60;20.48;;;;;;;;;;5057697;28;20048;-59
2023/12/19 09:36:45;;;;;;;27.42;20.13;;;;;;;;;;5044078;28;20061;-59
2023/12/19 09:39:14;;;;;;;25.88;19.52;;;;;;;;;;5048670;28;20031;-59
2023/12/19 09:41:39;;;;;;;26.05;19.33;;;;;;;;;;5022266;28;20034;-59
2023/12/19 09:44:05;;;;;;;26.30;19.35;;;;;;;;;;5017887;28;20051;-59
2023/12/19 09:46:33;;;;;;;24.70;19.40;;;;;;;;;;5046174;28;20040;-58
2023/12/19 09:48:58;;;;;;;24.05;18.73;;;;;;;;;;5034563;28;20063;-59
2023/12/19 09:51:26;;;;;;;26.02;19.35;;;;;;;;;;5035293;28;20120;-59
2023/12/19 09:53:53;;;;;;;24.70;18.42;;;;;;;;;;5031515;28;20041;-59
2023/12/19 09:56:18;;;;;;;24.38;19.45;;;;;;;;;;5051630;28;20116;-59
2023/12/19 09:58:44;;;;;;;24.80;19.40;;;;;;;;;;5029483;28;20601;-59
2023/12/19 10:01:09;;;;;;;25.60;19.58;;;;;;;;;;5028105;28;20056;-58
2023/12/19 10:03:34;;;;;;;24.05;19.58;;;;;;;;;;5026201;28;20450;-60
2023/12/19 10:06:00;;;;;;;24.25;19.27;;;;;;;;;;5024001;28;20501;-60
2023/12/19 10:08:26;;;;;;;23.20;18.45;;;;;;;;;;5022944;28;20442;-59
2023/12/19 10:10:52;;;;;;;25.05;18.70;;;;;;;;;;5015420;28;20033;-59
2023/12/19 10:13:27;;;;;;;24.23;19.33;;;;;;;;;;5013930;28;20028;-58
2023/12/19 10:15:59;;;;;;;24.80;18.58;;;;;;;;;;5024706;28;20799;-59
2023/12/19 10:18:25;;;;;;;25.33;18.50;;;;;;;;;;5018415;28;20049;-60
2023/12/19 10:20:51;;;;;;;23.95;18.77;;;;;;;;;;5043961;28;20831;-60
2023/12/19 10:23:19;;;;;;;24.92;17.85;;;;;;;;;;5001837;28;20036;-60
2023/12/19 10:25:51;;;;;;;25.48;18.98;;;;;;;;;;5040491;28;20441;-60
2023/12/19 10:28:16;;;;;;;25.30;18.88;;;;;;;;;;5036400;28;20056;-60
2023/12/19 10:30:42;;;;;;;24.90;19.60;;;;;;;;;;5005913;28;20048;-60
2023/12/19 10:33:08;;;;;;;26.98;19.55;;;;;;;;;;5039032;28;20024;-59
2023/12/19 10:35:36;;;;;;;24.50;18.77;;;;;;;;;;5040698;28;20047;-59
2023/12/19 10:38:02;;;;;;;24.77;19.15;;;;;;;;;;5040784;28;20045;-59
2023/12/19 10:40:27;;;;;;;25.25;18.80;;;;;;;;;;5018058;28;20500;-59
2023/12/19 10:42:56;;;;;;;23.70;18.35;;;;;;;;;;5042654;28;20020;-60
2023/12/19 10:45:21;;;;;;;23.95;19.05;;;;;;;;;;5020235;28;20132;-60
2023/12/19 10:47:47;;;;;;;24.02;18.40;;;;;;;;;;5037149;28;20446;-59
2023/12/19 10:50:12;;;;;;;24.75;18.33;;;;;;;;;;5043056;28;20021;-57
2023/12/19 10:52:37;;;;;;;23.60;18.25;;;;;;;;;;5040517;28;20442;-60
2023/12/19 10:55:06;;;;;;;24.73;18.45;;;;;;;;;;5019896;28;20017;-60
2023/12/19 10:57:32;;;;;;;26.50;19.40;;;;;;;;;;5021596;28;20443;-59
2023/12/19 11:00:13;;;;;;;23.63;18.52;;;;;;;;;;5041033;28;20055;-58
2023/12/19 11:02:51;;;;;;;24.52;17.92;;;;;;;;;;5022061;28;20040;-58
2023/12/19 11:05:20;;;;;;;38.28;28.15;;;;;;;;;;5037098;28;20056;-59
2023/12/19 11:07:45;;;;;;;27.07;20.03;;;;;;;;;;5036500;28;20123;-58
2023/12/19 11:10:11;;;;;;;25.13;19.58;;;;;;;;;;5045457;28;20124;-59
2023/12/19 11:12:36;;;;;;;24.65;19.27;;;;;;;;;;5010994;28;20049;-59
2023/12/19 11:15:03;;;;;;;25.38;18.80;;;;;;;;;;5036681;28;20033;-58
2023/12/19 11:17:29;;;;;;;25.98;20.02;;;;;;;;;;4997162;28;20575;-58
2023/12/19 11:20:03;;;;;;;24.38;18.75;;;;;;;;;;5039697;28;20040;-58
2023/12/19 11:22:32;;;;;;;24.77;19.33;;;;;;;;;;5011411;28;22011;-58
2023/12/19 11:25:01;;;;;;;22.98;18.27;;;;;;;;;;5015658;28;20050;-59
2023/12/19 11:27:29;;;;;;;24.27;18.70;;;;;;;;;;5037790;28;20538;-59
2023/12/19 11:29:55;;;;;;;24.50;19.48;;;;;;;;;;5013757;28;20045;-59
2023/12/19 11:32:26;;;;;;;23.05;18.88;;;;;;;;;;5021122;28;20045;-60
2023/12/19 11:34:52;;;;;;;23.02;18.08;;;;;;;;;;5030780;28;20527;-60
2023/12/19 11:37:19;;;;;;;24.67;18.50;;;;;;;;;;5037773;28;20095;-60
2023/12/19 11:39:45;;;;;;;23.15;17.48;;;;;;;;;;5040431;28;20711;-60
2023/12/19 11:42:30;;;;;;;23.30;18.38;;;;;;;;;;5039776;28;20068;-60
2023/12/19 11:44:55;;;;;;;23.38;17.90;;;;;;;;;;5038368;28;20135;-60
2023/12/19 11:47:21;;;;;;;22.88;18.15;;;;;;;;;;5023494;28;20104;-60
2023/12/19 11:49:47;;;;;;;20.70;17.20;;;;;;;;;;5017468;28;20118;-59
2023/12/19 11:52:36;;;;;;;22.70;17.58;;;;;;;;;;5036066;28;20039;-59
2023/12/19 11:55:02;;;;;;;24.23;17.90;;;;;;;;;;5014264;28;20596;-60
2023/12/19 11:57:28;;;;;;;22.80;18.35;;;;;;;;;;4997064;28;20319;-59
2023/12/19 11:59:54;;;;;;;22.05;17.33;;;;;;;;;;5033674;28;20041;-57
2023/12/19 12:02:45;;;;;;;21.75;16.67;;;;;;;;;;5011012;28;20037;-60
2023/12/19 12:05:18;;;;;;;22.00;17.50;;;;;;;;;;5031973;28;20950;-58
2023/12/19 12:07:51;;;;;;;23.30;17.75;;;;;;;;;;5013358;28;20060;-58
2023/12/19 12:10:20;;;;;;;20.98;16.92;;;;;;;;;;4996722;28;20588;-57
2023/12/19 12:12:45;;;;;;;24.67;18.35;;;;;;;;;;5018322;28;20056;-58
2023/12/19 12:15:11;;;;;;;20.38;17.73;;;;;;;;;;5036120;28;20036;-59
2023/12/19 12:17:37;;;;;;;21.35;16.98;;;;;;;;;;5032304;28;20059;-59
2023/12/19 12:20:03;;;;;;;21.38;17.42;;;;;;;;;;5035689;28;20678;-60
2023/12/19 12:22:29;;;;;;;20.73;17.00;;;;;;;;;;5010920;28;20037;-60
2023/12/19 12:24:54;;;;;;;22.67;18.00;;;;;;;;;;5037194;28;20037;-61
2023/12/19 12:27:20;;;;;;;20.90;16.88;;;;;;;;;;4995604;28;20049;-60
2023/12/19 12:29:45;;;;;;;20.85;17.00;;;;;;;;;;5016627;28;20357;-60
2023/12/19 12:32:11;;;;;;;22.17;17.48;;;;;;;;;;5018094;28;20116;-59
2023/12/19 12:34:36;;;;;;;20.92;17.20;;;;;;;;;;5015285;28;20044;-60
2023/12/19 12:37:01;;;;;;;23.58;17.55;;;;;;;;;;5033137;28;20048;-61
2023/12/19 12:39:27;;;;;;;19.65;16.42;;;;;;;;;;5035056;28;20422;-61
2023/12/19 12:42:05;;;;;;;21.75;17.33;;;;;;;;;;5019165;28;20366;-60
2023/12/19 12:44:30;;;;;;;20.42;16.80;;;;;;;;;;5035538;28;20570;-59
2023/12/19 12:46:56;;;;;;;21.70;17.75;;;;;;;;;;5019802;28;20128;-59
2023/12/19 12:49:22;;;;;;;20.67;16.67;;;;;;;;;;5017128;28;20025;-61
2023/12/19 12:51:47;;;;;;;21.40;17.27;;;;;;;;;;5034323;28;20569;-60
2023/12/19 12:54:16;;;;;;;23.52;17.17;;;;;;;;;;5017387;28;20025;-61
2023/12/19 12:56:42;;;;;;;20.80;16.93;;;;;;;;;;5016763;28;20040;-60
2023/12/19 12:59:08;;;;;;;20.70;17.25;;;;;;;;;;5018598;28;20037;-61
2023/12/19 13:01:34;;;;;;;22.75;17.58;;;;;;;;;;5036093;28;20059;-60
2023/12/19 13:03:59;;;;;;;23.23;17.35;;;;;;;;;;5005356;28;20052;-60
2023/12/19 13:06:25;;;;;;;22.65;17.20;;;;;;;;;;4999934;28;20045;-60
2023/12/19 13:08:51;;;;;;;24.02;16.63;;;;;;;;;;5023740;28;20045;-61
2023/12/19 13:11:17;;;;;;;25.40;17.90;;;;;;;;;;5014702;28;20795;-60
2023/12/19 13:13:43;;;;;;;21.73;16.27;;;;;;;;;;5016024;28;20033;-59
2023/12/19 13:16:08;;;;;;;21.73;17.25;;;;;;;;;;5019299;28;20116;-59
2023/12/19 13:18:34;;;;;;;21.80;17.17;;;;;;;;;;4997526;28;20182;-58
2023/12/19 13:20:59;;;;;;;20.70;16.85;;;;;;;;;;5018611;28;20037;-60
2023/12/19 13:23:24;;;;;;;21.98;16.88;;;;;;;;;;5034936;28;20131;-59
2023/12/19 13:25:50;;;;;;;21.17;16.60;;;;;;;;;;5023892;28;20037;-59
2023/12/19 13:28:17;;;;;;;19.25;15.80;;;;;;;;;;5021830;28;20200;-60
2023/12/19 13:30:43;;;;;;;19.83;16.95;;;;;;;;;;5020676;28;20033;-58
2023/12/19 13:33:08;;;;;;;21.33;17.02;;;;;;;;;;5012746;28;20528;-58
2023/12/19 13:35:34;;;;;;;20.13;15.63;;;;;;;;;;5021574;28;20053;-59
2023/12/19 13:37:59;;;;;;;20.45;15.98;;;;;;;;;;5037774;28;20489;-58
2023/12/19 13:40:25;;;;;;;19.75;15.80;;;;;;;;;;5016426;28;20516;-59
2023/12/19 13:42:50;;;;;;;19.55;15.82;;;;;;;;;;5026022;28;20395;-60
2023/12/19 13:45:15;;;;;;;18.77;15.43;;;;;;;;;;5021568;28;20068;-58
2023/12/19 13:47:41;;;;;;;24.10;17.20;;;;;;;;;;5034455;28;20499;-59
2023/12/19 13:50:06;;;;;;;19.85;16.05;;;;;;;;;;5014057;28;20563;-58
2023/12/19 13:52:31;;;;;;;20.50;16.40;;;;;;;;;;5038308;28;20033;-59
2023/12/19 13:54:57;;;;;;;17.48;15.38;;;;;;;;;;5011519;28;20173;-58
2023/12/19 13:57:23;;;;;;;18.77;15.73;;;;;;;;;;5020506;28;20047;-58
2023/12/19 13:59:48;;;;;;;20.85;16.48;;;;;;;;;;5039631;28;20033;-58
2023/12/19 14:02:17;;;;;;;22.10;15.48;;;;;;;;;;5041614;28;20891;-60
2023/12/19 14:04:43;;;;;;;20.25;15.25;;;;;;;;;;5017015;28;20483;-60
2023/12/19 14:07:13;;;;;;;19.65;15.65;;;;;;;;;;5043118;28;20053;-58
2023/12/19 14:09:39;;;;;;;21.20;16.65;;;;;;;;;;5016188;28;20030;-58
2023/12/19 14:12:04;;;;;;;18.15;15.95;;;;;;;;;;5028761;28;20094;-58
2023/12/19 14:14:30;;;;;;;18.88;15.98;;;;;;;;;;5027415;28;20499;-59
2023/12/19 14:16:56;;;;;;;18.95;15.43;;;;;;;;;;5047260;28;20037;-59
2023/12/19 14:19:22;;;;;;;19.55;15.15;;;;;;;;;;5051951;28;20055;-59
2023/12/19 14:21:49;;;;;;;17.92;15.38;;;;;;;;;;5045489;28;20029;-58